Time,TemperatureF,DewpointF,PressureIn,WindDirection,WindDirectionDegrees,WindSpeedMPH,WindSpeedGustMPH,Humidity,HourlyPrecipIn,Conditions,Clouds,dailyrainin,SoftwareType,DateUTC
2013-03-03 00:03:00,29.7,28.2,29.56,SE,135,0.0,-999.0,94,-99.99,,,0.00,Acu-Link.com,2013-03-03 05:03:00,
2013-03-03 00:18:00,29.7,28.2,29.55,SE,135,0.0,-999.0,94,-99.99,,,0.00,Acu-Link.com,2013-03-03 05:18:00,
2013-03-03 00:33:00,29.7,27.9,29.55,SE,135,0.0,-999.0,93,-99.99,,,0.00,Acu-Link.com,2013-03-03 05:33:00,
2013-03-03 00:49:00,29.8,28.5,29.55,ESE,112,0.0,-999.0,95,-99.99,,,0.00,Acu-Link.com,2013-03-03 05:49:00,
2013-03-03 01:04:00,29.7,28.4,29.55,South,180,0.0,-999.0,95,-99.99,,,0.00,Acu-Link.com,2013-03-03 06:04:00,
2013-03-03 01:19:00,29.7,28.4,29.54,SSW,202,0.0,-999.0,95,-99.99,,,0.00,Acu-Link.com,2013-03-03 06:19:00,
2013-03-03 01:34:00,29.7,28.4,29.54,East,90,0.0,-999.0,95,-99.99,,,0.00,Acu-Link.com,2013-03-03 06:34:00,
2013-03-03 01:50:00,29.5,28.2,29.54,SSW,202,0.0,-999.0,95,-99.99,,,0.00,Acu-Link.com,2013-03-03 06:50:00,
2013-03-03 02:05:00,29.5,26.9,29.54,WNW,292,0.0,-999.0,90,-99.99,,,0.00,Acu-Link.com,2013-03-03 07:05:00,
2013-03-03 02:20:00,29.8,26.4,29.53,ENE,67,0.0,-999.0,87,-99.99,,,0.00,Acu-Link.com,2013-03-03 07:20:00,
2013-03-03 02:35:00,30.2,26.5,29.53,SSW,202,0.0,-999.0,86,-99.99,,,0.00,Acu-Link.com,2013-03-03 07:35:00,
2013-03-03 02:51:00,30.0,27.2,29.53,SW,225,0.0,-999.0,89,-99.99,,,0.00,Acu-Link.com,2013-03-03 07:51:00,
2013-03-03 03:06:00,30.0,27.2,29.53,East,90,0.0,-999.0,89,-99.99,,,0.00,Acu-Link.com,2013-03-03 08:06:00,
2013-03-03 03:21:00,30.2,25.7,29.52,NW,315,2.2,-999.0,83,-99.99,,,0.00,Acu-Link.com,2013-03-03 08:21:00,
2013-03-03 03:36:00,30.4,26.4,29.53,NNW,337,0.0,-999.0,85,-99.99,,,0.00,Acu-Link.com,2013-03-03 08:36:00,
2013-03-03 03:52:00,30.6,25.5,29.53,SSE,157,1.1,-999.0,81,-99.99,,,0.00,Acu-Link.com,2013-03-03 08:52:00,
2013-03-03 04:18:00,30.6,26.1,29.52,NW,315,1.1,-999.0,83,-99.99,,,0.00,Acu-Link.com,2013-03-03 09:18:00,
2013-03-03 04:34:00,30.0,27.4,29.54,WNW,292,0.0,-999.0,90,-99.99,,,0.00,Acu-Link.com,2013-03-03 09:34:00,
2013-03-03 04:49:00,29.8,27.2,29.53,SW,225,0.0,-999.0,90,-99.99,,,0.00,Acu-Link.com,2013-03-03 09:49:00,
2013-03-03 05:04:00,29.7,26.6,29.53,WNW,292,0.0,-999.0,88,-99.99,,,0.00,Acu-Link.com,2013-03-03 10:04:00,
2013-03-03 05:19:00,29.7,27.1,29.53,ENE,67,0.0,-999.0,90,-99.99,,,0.00,Acu-Link.com,2013-03-03 10:19:00,
2013-03-03 05:34:00,29.7,26.3,29.53,East,90,1.1,-999.0,87,-99.99,,,0.00,Acu-Link.com,2013-03-03 10:34:00,
2013-03-03 05:50:00,30.0,26.0,29.52,East,90,0.0,-999.0,85,-99.99,,,0.00,Acu-Link.com,2013-03-03 10:50:00,
2013-03-03 06:05:00,29.8,27.0,29.53,NNW,337,0.0,-999.0,89,-99.99,,,0.00,Acu-Link.com,2013-03-03 11:05:00,
2013-03-03 06:20:00,29.7,27.1,29.53,ESE,112,0.0,-999.0,90,-99.99,,,0.00,Acu-Link.com,2013-03-03 11:20:00,
2013-03-03 06:35:00,29.5,26.9,29.52,South,180,0.0,-999.0,90,-99.99,,,0.00,Acu-Link.com,2013-03-03 11:35:00,
2013-03-03 06:51:00,29.5,26.9,29.53,South,180,0.0,-999.0,90,-99.99,,,0.00,Acu-Link.com,2013-03-03 11:51:00,
2013-03-03 07:06:00,30.0,26.6,29.53,ESE,112,1.1,-999.0,87,-99.99,,,0.00,Acu-Link.com,2013-03-03 12:06:00,
2013-03-03 07:22:00,30.9,26.6,29.52,NNE,22,2.7,-999.0,84,-99.99,,,0.00,Acu-Link.com,2013-03-03 12:22:00,
2013-03-03 07:37:00,31.5,27.2,29.54,NNE,22,1.7,-999.0,84,-99.99,,,0.00,Acu-Link.com,2013-03-03 12:37:00,
2013-03-03 07:52:00,32.4,27.5,29.54,NE,45,1.1,-999.0,82,-99.99,,,0.00,Acu-Link.com,2013-03-03 12:52:00,
2013-03-03 08:07:00,33.1,27.6,29.53,North,0,0.0,-999.0,80,-99.99,,,0.00,Acu-Link.com,2013-03-03 13:07:00,
2013-03-03 08:22:00,34.2,28.4,29.53,NE,45,2.7,-999.0,79,-99.99,,,0.00,Acu-Link.com,2013-03-03 13:22:00,
2013-03-03 08:38:00,34.5,28.4,29.53,NNW,337,1.1,-999.0,78,-99.99,,,0.00,Acu-Link.com,2013-03-03 13:38:00,
2013-03-03 08:53:00,35.1,28.6,29.52,NW,315,0.0,-999.0,77,-99.99,,,0.00,Acu-Link.com,2013-03-03 13:53:00,
2013-03-03 09:08:00,35.4,28.9,29.52,NNE,22,0.0,-999.0,77,-99.99,,,0.00,Acu-Link.com,2013-03-03 14:08:00,
2013-03-03 09:23:00,36.7,30.2,29.51,WNW,292,0.0,-999.0,77,-99.99,,,0.00,Acu-Link.com,2013-03-03 14:23:00,
2013-03-03 09:39:00,36.1,29.3,29.50,NW,315,2.2,-999.0,76,-99.99,,,0.01,Acu-Link.com,2013-03-03 14:39:00,
2013-03-03 09:54:00,37.2,30.0,29.50,NW,315,1.1,-999.0,75,-99.99,,,0.01,Acu-Link.com,2013-03-03 14:54:00,
2013-03-03 10:09:00,37.0,29.8,29.49,West,270,2.7,-999.0,75,-99.99,,,0.01,Acu-Link.com,2013-03-03 15:09:00,
2013-03-03 10:24:00,38.3,31.1,29.49,West,270,0.0,-999.0,75,-99.99,,,0.01,Acu-Link.com,2013-03-03 15:24:00,
2013-03-03 10:40:00,38.7,30.8,29.49,NW,315,0.0,-999.0,73,-99.99,,,0.01,Acu-Link.com,2013-03-03 15:40:00,
2013-03-03 10:55:00,38.7,30.8,29.48,WNW,292,2.7,-999.0,73,-99.99,,,0.01,Acu-Link.com,2013-03-03 15:55:00,
2013-03-03 11:10:00,39.2,30.3,29.49,WNW,292,3.2,-999.0,70,-99.99,,,0.01,Acu-Link.com,2013-03-03 16:10:00,
2013-03-03 11:25:00,39.7,31.1,29.48,ESE,112,2.2,-999.0,71,-99.99,,,0.01,Acu-Link.com,2013-03-03 16:25:00,
2013-03-03 11:41:00,39.4,30.4,29.49,North,0,2.7,-999.0,70,-99.99,,,0.01,Acu-Link.com,2013-03-03 16:41:00,
2013-03-03 11:56:00,39.6,30.6,29.48,West,270,3.2,-999.0,70,-99.99,,,0.01,Acu-Link.com,2013-03-03 16:56:00,
2013-03-03 12:11:00,39.6,31.0,29.47,NNE,22,3.2,-999.0,71,-99.99,,,0.01,Acu-Link.com,2013-03-03 17:11:00,
2013-03-03 12:26:00,38.8,30.6,29.47,NNE,22,2.7,-999.0,72,-99.99,,,0.01,Acu-Link.com,2013-03-03 17:26:00,
2013-03-03 12:42:00,39.0,30.4,29.47,NW,315,3.7,-999.0,71,-99.99,,,0.01,Acu-Link.com,2013-03-03 17:42:00,
2013-03-03 12:57:00,39.0,30.4,29.47,ENE,67,1.7,-999.0,71,-99.99,,,0.01,Acu-Link.com,2013-03-03 17:57:00,
2013-03-03 13:12:00,38.7,29.8,29.46,NNW,337,2.2,-999.0,70,-99.99,,,0.01,Acu-Link.com,2013-03-03 18:12:00,
2013-03-03 13:27:00,38.7,29.4,29.47,East,90,2.2,-999.0,69,-99.99,,,0.01,Acu-Link.com,2013-03-03 18:27:00,
2013-03-03 13:42:00,38.1,28.8,29.47,NE,45,2.7,-999.0,69,-99.99,,,0.01,Acu-Link.com,2013-03-03 18:42:00,
2013-03-03 13:58:00,37.9,29.7,29.47,East,90,1.1,-999.0,72,-99.99,,,0.01,Acu-Link.com,2013-03-03 18:58:00,
2013-03-03 14:13:00,38.1,29.2,29.46,North,0,3.7,-999.0,70,-99.99,,,0.01,Acu-Link.com,2013-03-03 19:13:00,
2013-03-03 14:29:00,38.7,30.1,29.47,NW,315,0.0,-999.0,71,-99.99,,,0.01,Acu-Link.com,2013-03-03 19:29:00,
2013-03-03 14:44:00,38.8,29.9,29.48,NE,45,1.7,-999.0,70,-99.99,,,0.01,Acu-Link.com,2013-03-03 19:44:00,
2013-03-03 14:59:00,38.3,29.7,29.46,North,0,2.2,-999.0,71,-99.99,,,0.01,Acu-Link.com,2013-03-03 19:59:00,
2013-03-03 15:15:00,37.9,29.0,29.47,NE,45,1.1,-999.0,70,-99.99,,,0.01,Acu-Link.com,2013-03-03 20:15:00,
2013-03-03 15:30:00,38.1,29.9,29.47,North,0,0.0,-999.0,72,-99.99,,,0.01,Acu-Link.com,2013-03-03 20:30:00,
2013-03-03 15:45:00,38.1,29.9,29.47,NW,315,0.0,-999.0,72,-99.99,,,0.01,Acu-Link.com,2013-03-03 20:45:00,
2013-03-03 16:00:00,37.4,29.9,29.47,SE,135,0.0,-999.0,74,-99.99,,,0.01,Acu-Link.com,2013-03-03 21:00:00,
2013-03-03 16:15:00,36.5,29.3,29.47,SW,225,1.7,-999.0,75,-99.99,,,0.01,Acu-Link.com,2013-03-03 21:15:00,
2013-03-03 16:31:00,36.5,29.3,29.47,East,90,0.0,-999.0,75,-99.99,,,0.01,Acu-Link.com,2013-03-03 21:31:00,
2013-03-03 16:46:00,35.6,29.1,29.48,NW,315,2.7,-999.0,77,-99.99,,,0.01,Acu-Link.com,2013-03-03 21:46:00,
2013-03-03 17:01:00,34.7,28.6,29.48,WNW,292,2.2,-999.0,78,-99.99,,,0.01,Acu-Link.com,2013-03-03 22:01:00,
2013-03-03 17:16:00,34.2,28.1,29.48,WNW,292,2.2,-999.0,78,-99.99,,,0.01,Acu-Link.com,2013-03-03 22:16:00,
2013-03-03 17:32:00,33.8,27.7,29.48,NNE,22,2.7,-999.0,78,-99.99,,,0.01,Acu-Link.com,2013-03-03 22:32:00,
2013-03-03 17:47:00,33.4,28.2,29.49,NW,315,3.2,-999.0,81,-99.99,,,0.01,Acu-Link.com,2013-03-03 22:47:00,
2013-03-03 18:02:00,32.9,27.7,29.49,WNW,292,2.7,-999.0,81,-99.99,,,0.01,Acu-Link.com,2013-03-03 23:02:00,
2013-03-03 18:17:00,32.9,27.7,29.49,NW,315,3.2,-999.0,81,-99.99,,,0.01,Acu-Link.com,2013-03-03 23:17:00,
2013-03-03 18:33:00,32.7,27.2,29.49,WNW,292,2.2,-999.0,80,-99.99,,,0.01,Acu-Link.com,2013-03-03 23:33:00,
2013-03-03 18:48:00,32.5,26.7,29.48,West,270,3.7,-999.0,79,-99.99,,,0.01,Acu-Link.com,2013-03-03 23:48:00,
2013-03-03 19:03:00,32.4,26.6,29.48,WNW,292,2.2,-999.0,79,-99.99,,,0.01,Acu-Link.com,2013-03-04 00:03:00,
2013-03-03 19:18:00,32.4,26.6,29.49,ESE,112,1.1,-999.0,79,-99.99,,,0.01,Acu-Link.com,2013-03-04 00:18:00,
2013-03-03 19:33:00,32.4,26.6,29.48,NE,45,0.0,-999.0,79,-99.99,,,0.01,Acu-Link.com,2013-03-04 00:33:00,
2013-03-03 19:51:00,32.2,27.0,29.50,SW,225,0.0,-999.0,81,-99.99,,,0.01,Acu-Link.com,2013-03-04 00:51:00,
2013-03-03 20:07:00,31.8,26.6,29.50,SW,225,0.0,-999.0,81,-99.99,,,0.01,Acu-Link.com,2013-03-04 01:07:00,
2013-03-03 20:24:00,31.6,26.5,29.49,West,270,0.0,-999.0,81,-99.99,,,0.01,Acu-Link.com,2013-03-04 01:24:00,
2013-03-03 20:40:00,31.3,27.0,29.49,ESE,112,0.0,-999.0,84,-99.99,,,0.01,Acu-Link.com,2013-03-04 01:40:00,
2013-03-03 20:55:00,30.9,26.4,29.48,WSW,247,0.0,-999.0,83,-99.99,,,0.01,Acu-Link.com,2013-03-04 01:55:00,
2013-03-03 21:10:00,30.7,26.4,29.48,SW,225,0.0,-999.0,84,-99.99,,,0.01,Acu-Link.com,2013-03-04 02:10:00,
2013-03-03 21:26:00,30.4,26.2,29.48,SSE,157,0.0,-999.0,84,-99.99,,,0.01,Acu-Link.com,2013-03-04 02:26:00,
2013-03-03 21:41:00,29.7,26.0,29.47,ENE,67,0.0,-999.0,86,-99.99,,,0.01,Acu-Link.com,2013-03-04 02:41:00,
2013-03-03 21:56:00,29.1,26.0,29.48,South,180,0.0,-999.0,88,-99.99,,,0.01,Acu-Link.com,2013-03-04 02:56:00,
2013-03-03 22:12:00,29.3,25.9,29.48,SSW,202,1.7,-999.0,87,-99.99,,,0.01,Acu-Link.com,2013-03-04 03:12:00,
2013-03-03 22:27:00,30.0,25.8,29.47,SSE,157,0.0,-999.0,84,-99.99,,,0.01,Acu-Link.com,2013-03-04 03:27:00,
2013-03-03 22:42:00,30.4,25.9,29.47,West,270,2.2,-999.0,83,-99.99,,,0.01,Acu-Link.com,2013-03-04 03:42:00,
2013-03-03 22:57:00,30.6,25.2,29.47,NE,45,2.7,-999.0,80,-99.99,,,0.01,Acu-Link.com,2013-03-04 03:57:00,
2013-03-03 23:13:00,30.0,24.0,29.46,West,270,4.2,-999.0,78,-99.99,,,0.01,Acu-Link.com,2013-03-04 04:13:00,
2013-03-03 23:28:00,29.7,24.0,29.47,West,270,3.7,-999.0,79,-99.99,,,0.01,Acu-Link.com,2013-03-04 04:28:00,
2013-03-03 23:43:00,29.5,23.8,29.47,WNW,292,2.7,-999.0,79,-99.99,,,0.01,Acu-Link.com,2013-03-04 04:43:00,
2013-03-03 23:58:00,29.3,23.9,29.46,East,90,2.2,-999.0,80,-99.99,,,0.01,Acu-Link.com,2013-03-04 04:58:00,